createdAt,value
2023-03-07T00:00:34.887Z,27.77
2023-03-07T00:03:08.135Z,29.17
2023-03-07T00:05:38.913Z,27.75
2023-03-07T00:08:07.037Z,27.23
2023-03-07T00:10:35.258Z,26.40
2023-03-07T00:13:04.576Z,28.90
2023-03-07T00:15:32.721Z,26.92
2023-03-07T00:18:03.652Z,28.13
2023-03-07T00:20:37.824Z,28.50
2023-03-07T00:23:08.147Z,29.17
2023-03-07T00:25:38.735Z,26.80
2023-03-07T00:28:07.039Z,28.17
2023-03-07T00:30:38.140Z,30.92
2023-03-07T00:33:08.314Z,28.40
2023-03-07T00:36:01.969Z,30.42
2023-03-07T00:38:35.385Z,29.98
2023-03-07T00:41:07.238Z,30.25
2023-03-07T00:43:38.596Z,30.15
2023-03-07T00:46:06.968Z,31.40
2023-03-07T00:48:39.400Z,29.90
2023-03-07T00:51:11.416Z,31.33
2023-03-07T00:53:39.955Z,29.08
2023-03-07T00:56:19.831Z,31.25
2023-03-07T00:58:48.210Z,30.20
2023-03-07T01:01:24.456Z,30.83
2023-03-07T01:03:56.582Z,32.20
2023-03-07T01:06:26.740Z,29.45
2023-03-07T01:09:00.084Z,31.77
2023-03-07T01:11:34.132Z,30.77
2023-03-07T01:14:09.441Z,31.17
2023-03-07T01:16:39.060Z,31.77
2023-03-07T01:19:10.188Z,30.20
2023-03-07T01:21:43.411Z,31.55
2023-03-07T01:24:15.027Z,32.60
2023-03-07T01:26:43.414Z,31.50
2023-03-07T01:29:11.650Z,30.35
2023-03-07T01:31:40.701Z,31.80
2023-03-07T01:34:08.289Z,32.95
2023-03-07T01:36:37.355Z,31.70
2023-03-07T01:39:14.857Z,32.55
2023-03-07T01:41:56.079Z,31.13
2023-03-07T01:44:27.617Z,30.73
2023-03-07T01:47:00.889Z,30.55
2023-03-07T01:49:52.871Z,32.80
2023-03-07T01:52:47.950Z,31.55
2023-03-07T01:55:19.469Z,30.40
2023-03-07T01:57:57.001Z,30.20
2023-03-07T02:00:31.936Z,31.08
2023-03-07T02:03:12.176Z,30.30
2023-03-07T02:05:50.632Z,32.15
2023-03-07T02:08:20.891Z,29.05
2023-03-07T02:10:52.089Z,30.05
2023-03-07T02:13:22.710Z,30.95
2023-03-07T02:15:51.743Z,30.05
2023-03-07T02:18:25.370Z,29.48
2023-03-07T02:23:45.059Z,29.52
2023-03-07T02:26:16.448Z,29.75
2023-03-07T02:28:46.670Z,30.35
2023-03-07T02:31:15.181Z,30.85
2023-03-07T02:33:43.511Z,32.20
2023-03-07T02:36:17.081Z,31.15
2023-03-07T02:38:58.297Z,32.10
2023-03-07T02:41:33.003Z,32.50
2023-03-07T02:44:04.422Z,30.90
2023-03-07T02:46:33.360Z,32.10
2023-03-07T02:49:04.470Z,31.05
2023-03-07T02:51:33.398Z,31.75
2023-03-07T02:54:00.956Z,31.60
2023-03-07T02:56:28.582Z,30.98
2023-03-07T02:58:59.219Z,30.50
2023-03-07T03:01:27.668Z,31.38
2023-03-07T03:03:56.413Z,31.08
2023-03-07T03:06:28.445Z,30.25
2023-03-07T03:08:57.608Z,30.25
2023-03-07T03:11:27.509Z,31.17
2023-03-07T03:13:55.113Z,30.83
2023-03-07T03:16:23.107Z,31.33
2023-03-07T03:18:51.060Z,30.92
2023-03-07T03:21:19.890Z,29.88
2023-03-07T03:23:48.063Z,31.35
2023-03-07T03:26:16.010Z,28.98
2023-03-07T03:28:44.074Z,30.05
2023-03-07T03:31:21.029Z,30.05
2023-03-07T03:33:55.473Z,29.33
2023-03-07T03:36:29.328Z,28.73
2023-03-07T03:39:07.584Z,27.83
2023-03-07T03:41:41.850Z,27.60
2023-03-07T03:44:13.997Z,28.30
2023-03-07T03:46:45.077Z,28.70
2023-03-07T03:49:21.471Z,28.15
2023-03-07T03:51:54.374Z,28.20
2023-03-07T03:54:28.534Z,28.20
2023-03-07T03:56:59.628Z,27.23
2023-03-07T03:59:31.688Z,27.80
2023-03-07T04:02:03.098Z,27.27
2023-03-07T04:04:30.956Z,27.77
2023-03-07T04:06:59.134Z,27.30
2023-03-07T04:09:30.244Z,27.30
2023-03-07T04:11:58.645Z,27.17
2023-03-07T04:14:27.436Z,26.52
2023-03-07T04:16:55.345Z,25.70
2023-03-07T04:19:29.675Z,25.42
2023-03-07T04:22:02.154Z,25.95
2023-03-07T04:24:31.508Z,23.95
2023-03-07T04:27:02.643Z,25.00
2023-03-07T04:29:34.391Z,24.50
2023-03-07T04:32:16.208Z,23.17
2023-03-07T04:34:44.571Z,24.98
2023-03-07T04:37:18.265Z,23.65
2023-03-07T04:39:46.081Z,24.77
2023-03-07T04:42:15.330Z,24.80
2023-03-07T04:44:46.172Z,24.88
2023-03-07T04:47:16.652Z,23.85
2023-03-07T04:49:48.197Z,23.38
2023-03-07T04:52:21.856Z,24.52
2023-03-07T04:54:50.343Z,26.52
2023-03-07T04:57:18.405Z,22.60
2023-03-07T05:00:17.595Z,25.55
2023-03-07T05:02:48.784Z,24.48
2023-03-07T05:05:21.424Z,24.10
2023-03-07T05:07:55.012Z,23.67
2023-03-07T05:10:22.450Z,26.33
2023-03-07T05:12:49.807Z,24.98
2023-03-07T05:15:19.778Z,24.08
2023-03-07T05:17:47.182Z,23.50
2023-03-07T05:20:17.260Z,23.23
2023-03-07T05:22:47.625Z,25.00
2023-03-07T05:25:15.479Z,24.70
2023-03-07T05:27:44.503Z,23.25
2023-03-07T05:30:13.259Z,24.35
2023-03-07T05:32:40.921Z,23.83
2023-03-07T05:35:15.563Z,24.58
2023-03-07T05:37:45.374Z,24.85
2023-03-07T05:40:14.571Z,25.45
2023-03-07T05:42:46.484Z,25.75
2023-03-07T05:45:14.610Z,24.83
2023-03-07T05:47:42.787Z,25.17
2023-03-07T05:50:13.763Z,26.48
2023-03-07T05:52:42.082Z,26.50
2023-03-07T05:55:10.345Z,24.58
2023-03-07T05:57:40.016Z,24.27
2023-03-07T06:00:08.692Z,24.40
2023-03-07T06:02:44.869Z,26.02
2023-03-07T06:05:17.429Z,23.58
2023-03-07T06:07:45.050Z,23.98
2023-03-07T06:10:18.084Z,22.33
2023-03-07T06:12:49.253Z,23.02
2023-03-07T06:15:16.783Z,22.67
2023-03-07T06:17:44.548Z,23.58
2023-03-07T06:20:14.514Z,23.70
2023-03-07T06:22:45.253Z,24.58
2023-03-07T06:25:13.095Z,24.20
2023-03-07T06:27:40.740Z,23.80
2023-03-07T06:30:10.287Z,24.38
2023-03-07T06:32:51.379Z,22.90
2023-03-07T06:35:19.206Z,24.00
2023-03-07T06:37:51.220Z,22.73
2023-03-07T06:40:25.826Z,22.60
2023-03-07T06:43:04.630Z,22.80
2023-03-07T06:45:54.454Z,20.67
2023-03-07T06:48:35.916Z,22.88
2023-03-07T06:51:18.383Z,22.48
2023-03-07T06:53:55.008Z,21.35
2023-03-07T06:56:39.456Z,21.40
2023-03-07T06:59:07.592Z,22.67
2023-03-07T07:01:38.846Z,22.08
2023-03-07T07:04:10.293Z,19.90
2023-03-07T07:06:45.769Z,21.17
2023-03-07T07:09:19.076Z,20.38
2023-03-07T07:11:58.744Z,22.13
2023-03-07T07:14:40.586Z,22.77
2023-03-07T07:17:11.640Z,22.13
2023-03-07T07:19:44.998Z,23.35
2023-03-07T07:24:48.999Z,21.13
2023-03-07T07:27:20.065Z,22.65
2023-03-07T07:29:56.799Z,22.80
2023-03-07T07:32:31.920Z,21.63
2023-03-07T07:35:02.379Z,23.33
2023-03-07T07:37:36.267Z,21.65
2023-03-07T07:40:12.442Z,21.75
2023-03-07T07:42:49.421Z,21.52
2023-03-07T07:45:27.741Z,21.77
2023-03-07T07:47:59.342Z,21.05
2023-03-07T07:50:31.697Z,21.80
2023-03-07T07:53:06.428Z,21.55
2023-03-07T07:55:36.545Z,23.42
2023-03-07T07:58:09.227Z,22.65
2023-03-07T08:00:46.606Z,21.80
2023-03-07T08:03:16.249Z,26.05
2023-03-07T08:05:52.261Z,30.92
2023-03-07T08:08:29.135Z,24.50
2023-03-07T08:11:06.595Z,22.10
2023-03-07T08:13:40.144Z,24.33
2023-03-07T08:16:18.186Z,22.67
2023-03-07T08:19:01.105Z,24.15
2023-03-07T08:21:31.813Z,24.08
2023-03-07T08:24:04.891Z,24.38
2023-03-07T08:26:32.342Z,24.02
2023-03-07T08:29:00.139Z,25.35
2023-03-07T08:31:27.629Z,24.92
2023-03-07T08:33:55.784Z,25.95
2023-03-07T08:36:28.496Z,25.00
2023-03-07T08:39:02.868Z,24.88
2023-03-07T08:41:36.455Z,23.88
2023-03-07T08:44:24.687Z,26.05
2023-03-07T08:46:58.401Z,25.58
2023-03-07T08:49:29.344Z,26.00
2023-03-07T08:52:03.546Z,25.35
2023-03-07T08:54:36.239Z,26.42
2023-03-07T08:57:04.297Z,26.50
2023-03-07T08:59:32.209Z,24.70
2023-03-07T09:02:04.872Z,24.42
2023-03-07T09:04:44.758Z,24.83
2023-03-07T09:07:32.421Z,22.88
2023-03-07T09:10:02.241Z,22.50
2023-03-07T09:12:29.937Z,21.52
2023-03-07T09:14:59.986Z,19.98
2023-03-07T09:17:33.333Z,21.25
2023-03-07T09:20:05.075Z,21.00
2023-03-07T09:22:35.508Z,18.48
2023-03-07T09:25:08.447Z,20.13
2023-03-07T09:27:39.424Z,17.83
2023-03-07T09:30:07.540Z,19.17
2023-03-07T09:32:37.854Z,18.63
2023-03-07T09:35:10.839Z,19.20
2023-03-07T09:37:38.361Z,19.35
2023-03-07T09:40:24.711Z,18.08
2023-03-07T09:43:16.995Z,20.52
2023-03-07T09:46:32.221Z,16.80
2023-03-07T09:49:23.802Z,20.33
2023-03-07T09:51:54.578Z,19.90
2023-03-07T09:54:47.539Z,18.63
2023-03-07T09:57:24.112Z,17.50
2023-03-07T10:00:16.572Z,18.20
2023-03-07T10:03:28.681Z,18.90
2023-03-07T10:06:20.819Z,18.27
2023-03-07T10:09:32.071Z,18.83
2023-03-07T10:12:23.398Z,17.65
2023-03-07T10:15:17.292Z,14.88
2023-03-07T10:18:07.801Z,14.55
2023-03-07T10:20:48.223Z,13.93
2023-03-07T10:23:22.797Z,16.23
2023-03-07T10:26:20.285Z,16.02
2023-03-07T10:28:54.692Z,14.40
2023-03-07T10:31:33.319Z,13.77
2023-03-07T10:34:05.940Z,12.50
2023-03-07T10:36:48.989Z,10.05
2023-03-07T10:39:46.542Z,10.20
2023-03-07T10:42:23.600Z,10.68
2023-03-07T10:44:55.624Z,10.30
2023-03-07T10:47:29.869Z,10.00
2023-03-07T10:50:39.231Z,11.10
2023-03-07T10:53:29.803Z,10.15
2023-03-07T10:56:17.065Z,12.13
2023-03-07T10:59:06.418Z,11.85
2023-03-07T11:01:54.302Z,12.55
2023-03-07T11:04:35.989Z,11.82
2023-03-07T11:07:36.438Z,11.02
2023-03-07T11:10:47.448Z,11.63
2023-03-07T11:13:27.940Z,12.88
2023-03-07T11:16:22.656Z,11.95
2023-03-07T11:18:51.971Z,12.30
2023-03-07T11:21:40.757Z,13.20
2023-03-07T11:24:31.812Z,12.52
2023-03-07T11:27:00.482Z,12.52
2023-03-07T11:29:34.210Z,13.43
2023-03-07T11:32:22.996Z,13.32
2023-03-07T11:35:19.438Z,12.68
2023-03-07T11:38:11.178Z,12.43
2023-03-07T11:40:53.609Z,13.40
2023-03-07T11:43:58.107Z,14.48
2023-03-07T11:47:01.698Z,14.75
2023-03-07T11:50:18.131Z,12.07
2023-03-07T11:53:22.009Z,13.13
2023-03-07T11:56:11.238Z,13.30
2023-03-07T11:59:17.459Z,13.80
2023-03-07T12:01:59.168Z,13.07
2023-03-07T12:04:53.090Z,16.52
2023-03-07T12:07:32.396Z,16.80
2023-03-07T12:10:42.374Z,15.02
2023-03-07T12:13:24.543Z,14.52
2023-03-07T12:16:13.074Z,14.88
2023-03-07T12:18:55.208Z,17.73
2023-03-07T12:21:48.054Z,18.40
2023-03-07T12:24:25.939Z,18.30
2023-03-07T12:27:04.702Z,16.40
2023-03-07T12:29:59.276Z,16.75
2023-03-07T12:32:29.857Z,17.60
2023-03-07T12:35:05.731Z,18.80
2023-03-07T12:37:50.193Z,18.17
2023-03-07T12:43:54.943Z,18.58
2023-03-07T12:46:46.610Z,17.65
2023-03-07T12:49:53.471Z,17.67
2023-03-07T12:53:04.426Z,17.63
2023-03-07T12:55:41.499Z,18.33
2023-03-07T12:58:50.248Z,18.05
2023-03-07T13:01:44.798Z,17.55
2023-03-07T13:04:44.066Z,15.38
2023-03-07T13:07:32.000Z,16.23
2023-03-07T13:10:07.000Z,15.57
2023-03-07T13:12:37.992Z,16.63
2023-03-07T13:15:29.092Z,16.98
2023-03-07T13:18:01.088Z,16.48
2023-03-07T13:20:54.671Z,16.75
2023-03-07T13:23:29.608Z,15.75
2023-03-07T13:26:13.905Z,14.82
2023-03-07T13:29:03.820Z,14.30
2023-03-07T13:31:46.721Z,12.93
2023-03-07T13:34:47.778Z,11.27
2023-03-07T13:38:06.598Z,11.48
2023-03-07T13:41:01.138Z,11.10
2023-03-07T13:43:59.705Z,10.52
2023-03-07T13:46:52.549Z,10.07
2023-03-07T13:49:58.076Z,9.25
2023-03-07T13:52:43.933Z,8.80
2023-03-07T13:55:28.936Z,8.10
2023-03-07T13:58:13.205Z,7.57
2023-03-07T14:01:22.711Z,7.82
2023-03-07T14:04:17.869Z,8.02
2023-03-07T14:07:09.437Z,6.72
2023-03-07T14:10:05.403Z,5.55
2023-03-07T14:13:17.690Z,5.17
2023-03-07T14:16:03.625Z,4.95
2023-03-07T14:18:39.967Z,4.65
2023-03-07T14:21:10.191Z,5.30
2023-03-07T14:23:57.393Z,5.70
2023-03-07T14:26:37.265Z,5.50
2023-03-07T14:29:15.656Z,5.88
2023-03-07T14:31:46.453Z,5.85
2023-03-07T14:34:24.812Z,5.93
2023-03-07T14:37:07.701Z,6.00
2023-03-07T14:39:58.934Z,5.00
2023-03-07T14:42:36.085Z,3.40
2023-03-07T14:45:25.380Z,2.47
2023-03-07T14:48:36.796Z,1.83
2023-03-07T14:51:35.373Z,1.13
2023-03-07T14:54:32.360Z,1.10
2023-03-07T14:57:03.066Z,1.02
2023-03-07T14:59:35.125Z,1.20
2023-03-07T15:02:02.477Z,1.33
2023-03-07T15:04:42.501Z,1.20
2023-03-07T15:07:21.843Z,1.20
2023-03-07T15:09:53.960Z,0.85
2023-03-07T15:12:32.475Z,1.10
2023-03-07T15:15:34.701Z,0.82
2023-03-07T15:18:33.633Z,0.98
2023-03-07T15:21:11.207Z,1.20
2023-03-07T15:23:45.134Z,1.35
2023-03-07T15:26:21.518Z,2.40
2023-03-07T15:29:06.821Z,1.00
2023-03-07T15:34:45.035Z,1.40
2023-03-07T15:37:31.425Z,1.30
2023-03-07T15:40:31.124Z,1.10
2023-03-07T15:43:28.282Z,1.30
2023-03-07T15:46:07.774Z,1.20
2023-03-07T15:49:05.096Z,1.08
2023-03-07T15:51:38.598Z,1.30
2023-03-07T15:54:46.935Z,1.08
2023-03-07T15:57:22.841Z,1.20
2023-03-07T15:59:56.557Z,1.27
2023-03-07T16:02:47.097Z,1.50
2023-03-07T16:05:26.100Z,1.38
2023-03-07T16:10:45.582Z,1.87
2023-03-07T16:13:17.317Z,1.83
2023-03-07T16:15:58.183Z,1.60
2023-03-07T16:18:34.985Z,1.35
2023-03-07T16:21:19.662Z,1.38
2023-03-07T16:23:58.985Z,1.52
2023-03-07T16:26:32.584Z,2.10
2023-03-07T16:29:12.139Z,2.08
2023-03-07T16:31:42.156Z,2.47
2023-03-07T16:34:20.494Z,2.15
2023-03-07T16:36:53.076Z,3.33
2023-03-07T16:39:27.043Z,2.40
2023-03-07T16:41:57.482Z,1.60
2023-03-07T16:44:25.883Z,2.08
2023-03-07T16:47:02.631Z,2.22
2023-03-07T16:49:30.280Z,2.72
2023-03-07T16:52:16.728Z,2.60
2023-03-07T16:54:56.314Z,3.10
2023-03-07T16:57:25.946Z,2.55
2023-03-07T17:00:20.052Z,2.63
2023-03-07T17:02:56.336Z,2.30
2023-03-07T17:05:38.494Z,2.60
2023-03-07T17:08:19.563Z,5.07
2023-03-07T17:10:51.108Z,4.70
2023-03-07T17:13:26.839Z,3.03
2023-03-07T17:15:58.730Z,4.53
2023-03-07T17:18:39.401Z,5.22
2023-03-07T17:21:23.372Z,5.68
2023-03-07T17:23:57.222Z,4.93
2023-03-07T17:26:36.013Z,4.50
2023-03-07T17:29:15.341Z,3.80
2023-03-07T17:31:49.581Z,2.78
2023-03-07T17:34:43.852Z,2.92
2023-03-07T17:37:19.564Z,2.88
2023-03-07T17:39:50.333Z,2.50
2023-03-07T17:42:21.715Z,2.33
2023-03-07T17:44:55.657Z,2.83
2023-03-07T17:47:26.598Z,2.50
2023-03-07T17:49:59.992Z,2.97
2023-03-07T17:52:31.690Z,3.10
2023-03-07T17:54:59.919Z,3.38
2023-03-07T17:57:30.609Z,3.40
2023-03-07T18:00:07.301Z,3.65
2023-03-07T18:02:45.066Z,3.85
2023-03-07T18:05:13.672Z,4.00
2023-03-07T18:07:41.939Z,3.17
2023-03-07T18:10:12.340Z,3.30
2023-03-07T18:12:55.788Z,3.45
2023-03-07T18:15:30.509Z,2.90
2023-03-07T18:18:00.440Z,4.22
2023-03-07T18:20:32.088Z,3.17
2023-03-07T18:22:59.678Z,3.20
2023-03-07T18:25:27.144Z,3.55
2023-03-07T18:27:54.904Z,3.17
2023-03-07T18:30:25.390Z,3.45
2023-03-07T18:32:55.756Z,3.00
2023-03-07T18:35:26.073Z,3.75
2023-03-07T18:37:54.608Z,3.95
2023-03-07T18:40:25.242Z,4.15
2023-03-07T18:42:59.904Z,4.53
2023-03-07T18:45:29.037Z,4.32
2023-03-07T18:47:56.590Z,4.95
2023-03-07T18:50:29.793Z,5.35
2023-03-07T18:52:59.819Z,5.78
2023-03-07T18:55:30.147Z,6.63
2023-03-07T18:58:01.275Z,4.70
2023-03-07T19:00:29.104Z,5.30
2023-03-07T19:02:58.335Z,4.72
2023-03-07T19:05:25.678Z,5.00
2023-03-07T19:07:57.754Z,4.32
2023-03-07T19:10:26.948Z,3.30
2023-03-07T19:12:57.387Z,3.72
2023-03-07T19:15:25.316Z,2.92
2023-03-07T19:17:55.112Z,2.72
2023-03-07T19:20:32.043Z,2.83
2023-03-07T19:23:00.762Z,2.70
2023-03-07T19:25:33.002Z,3.17
2023-03-07T19:28:07.540Z,2.25
2023-03-07T19:30:37.652Z,2.88
2023-03-07T19:33:06.400Z,2.85
2023-03-07T19:35:34.469Z,3.30
2023-03-07T19:38:02.900Z,2.95
2023-03-07T19:40:37.151Z,3.50
2023-03-07T19:43:06.394Z,2.80
2023-03-07T19:45:34.713Z,3.22
2023-03-07T19:48:05.433Z,3.97
2023-03-07T19:50:38.550Z,4.70
2023-03-07T19:53:06.948Z,4.20
2023-03-07T19:55:34.291Z,6.05
2023-03-07T19:58:01.846Z,5.22
2023-03-07T20:00:30.130Z,6.93
2023-03-07T20:02:57.622Z,6.15
2023-03-07T20:05:25.089Z,4.50
2023-03-07T20:07:55.584Z,5.60
2023-03-07T20:10:25.414Z,5.22
2023-03-07T20:12:56.470Z,6.38
2023-03-07T20:15:23.809Z,4.60
2023-03-07T20:17:51.295Z,4.93
2023-03-07T20:20:21.365Z,6.10
2023-03-07T20:22:55.423Z,5.30
2023-03-07T20:25:24.357Z,6.50
2023-03-07T20:27:54.591Z,5.93
2023-03-07T20:30:25.342Z,6.20
2023-03-07T20:32:53.649Z,5.25
2023-03-07T20:35:24.713Z,4.40
2023-03-07T20:37:56.133Z,4.47
2023-03-07T20:40:26.457Z,6.65
2023-03-07T20:42:57.381Z,5.88
2023-03-07T20:45:24.779Z,6.93
2023-03-07T20:47:54.333Z,7.47
2023-03-07T20:50:24.848Z,8.48
2023-03-07T20:52:52.664Z,10.18
2023-03-07T20:55:24.857Z,10.07
2023-03-07T20:57:52.748Z,10.63
2023-03-07T21:00:22.570Z,9.98
2023-03-07T21:03:04.934Z,10.02
2023-03-07T21:05:33.122Z,10.90
2023-03-07T21:08:01.785Z,12.30
2023-03-07T21:10:30.176Z,10.98
2023-03-07T21:12:58.333Z,11.07
2023-03-07T21:15:29.147Z,10.85
2023-03-07T21:17:59.719Z,10.30
2023-03-07T21:20:30.348Z,9.88
2023-03-07T21:23:00.882Z,10.45
2023-03-07T21:25:31.971Z,11.13
2023-03-07T21:27:59.302Z,10.52
2023-03-07T21:30:26.683Z,11.52
2023-03-07T21:32:57.314Z,11.25
2023-03-07T21:35:25.576Z,10.70
2023-03-07T21:37:52.980Z,10.88
2023-03-07T21:40:21.667Z,10.63
2023-03-07T21:42:49.058Z,10.40
2023-03-07T21:45:16.562Z,11.25
2023-03-07T21:47:46.525Z,11.55
2023-03-07T21:50:14.186Z,10.82
2023-03-07T21:52:42.376Z,11.07
2023-03-07T21:55:15.566Z,12.40
2023-03-07T21:57:46.605Z,12.00
2023-03-07T22:00:17.451Z,11.80
2023-03-07T22:02:47.748Z,11.65
2023-03-07T22:05:18.000Z,10.38
2023-03-07T22:07:45.326Z,10.75
2023-03-07T22:10:12.640Z,11.07
2023-03-07T22:12:39.826Z,11.55
2023-03-07T22:15:07.922Z,10.98
2023-03-07T22:17:36.699Z,11.40
2023-03-07T22:20:05.327Z,11.40
2023-03-07T22:22:32.979Z,10.95
2023-03-07T22:25:01.002Z,11.05
2023-03-07T22:27:28.401Z,11.85
2023-03-07T22:29:57.102Z,10.45
2023-03-07T22:32:24.953Z,11.75
2023-03-07T22:34:58.155Z,11.20
2023-03-07T22:37:29.003Z,12.07
2023-03-07T22:39:58.699Z,10.48
2023-03-07T22:42:28.546Z,11.40
2023-03-07T22:45:01.530Z,12.40
2023-03-07T22:47:31.530Z,10.38
2023-03-07T22:49:58.717Z,10.32
2023-03-07T22:52:28.445Z,13.10
2023-03-07T22:54:55.739Z,10.98
2023-03-07T22:57:26.237Z,11.90
2023-03-07T22:59:56.853Z,12.07
2023-03-07T23:02:26.757Z,11.93
2023-03-07T23:04:54.374Z,11.35
2023-03-07T23:07:21.873Z,12.35
2023-03-07T23:09:49.593Z,12.48
2023-03-07T23:12:26.388Z,11.52
2023-03-07T23:14:56.797Z,10.88
2023-03-07T23:17:26.476Z,10.98
2023-03-07T23:19:54.059Z,10.88
2023-03-07T23:22:24.318Z,10.93
2023-03-07T23:24:54.263Z,11.02
2023-03-07T23:27:21.491Z,10.45
2023-03-07T23:29:49.153Z,12.13
2023-03-07T23:32:16.628Z,11.82
2023-03-07T23:34:47.074Z,11.23
2023-03-07T23:37:14.293Z,11.27
2023-03-07T23:39:41.691Z,10.98
2023-03-07T23:42:12.333Z,11.73
2023-03-07T23:44:39.988Z,11.05
2023-03-07T23:47:07.388Z,11.05
2023-03-07T23:49:34.941Z,11.18
2023-03-07T23:52:02.421Z,11.23
2023-03-07T23:54:29.663Z,10.60
2023-03-07T23:56:57.092Z,10.77
2023-03-07T23:59:24.489Z,11.15
